sensor_id;sensor_type;location;lat;lon;timestamp;pressure;altitude;pressure_sealevel;temperature
11849;BMP180;5983;49.966;8.052;2023-02-01T00:01:20;101021.00;;;6.10
11849;BMP180;5983;49.966;8.052;2023-02-01T00:03:47;101005.00;;;6.10
11849;BMP180;5983;49.966;8.052;2023-02-01T00:06:14;101014.00;;;6.00
11849;BMP180;5983;49.966;8.052;2023-02-01T00:08:41;101011.00;;;6.00
11849;BMP180;5983;49.966;8.052;2023-02-01T00:11:10;101014.00;;;6.00
11849;BMP180;5983;49.966;8.052;2023-02-01T00:13:40;100999.00;;;5.90
11849;BMP180;5983;49.966;8.052;2023-02-01T00:16:10;101008.00;;;5.90
11849;BMP180;5983;49.966;8.052;2023-02-01T00:18:40;101013.00;;;5.90
11849;BMP180;5983;49.966;8.052;2023-02-01T00:21:07;100993.00;;;5.90
11849;BMP180;5983;49.966;8.052;2023-02-01T00:23:35;101000.00;;;5.90
11849;BMP180;5983;49.966;8.052;2023-02-01T00:26:04;101001.00;;;5.80
11849;BMP180;5983;49.966;8.052;2023-02-01T00:28:31;101006.00;;;5.90
11849;BMP180;5983;49.966;8.052;2023-02-01T00:31:00;101007.00;;;5.90
11849;BMP180;5983;49.966;8.052;2023-02-01T00:33:28;101010.00;;;5.90
11849;BMP180;5983;49.966;8.052;2023-02-01T00:35:58;101005.00;;;5.90
11849;BMP180;5983;49.966;8.052;2023-02-01T00:38:26;101015.00;;;5.90
11849;BMP180;5983;49.966;8.052;2023-02-01T00:40:53;101013.00;;;5.90
11849;BMP180;5983;49.966;8.052;2023-02-01T00:43:21;101009.00;;;6.00
11849;BMP180;5983;49.966;8.052;2023-02-01T00:45:48;101006.00;;;6.00
11849;BMP180;5983;49.966;8.052;2023-02-01T00:48:14;101007.00;;;6.00
11849;BMP180;5983;49.966;8.052;2023-02-01T00:50:42;101004.00;;;6.10
11849;BMP180;5983;49.966;8.052;2023-02-01T00:53:11;101005.00;;;6.10
11849;BMP180;5983;49.966;8.052;2023-02-01T00:55:38;101010.00;;;6.10
11849;BMP180;5983;49.966;8.052;2023-02-01T00:58:05;101017.00;;;6.10
11849;BMP180;5983;49.966;8.052;2023-02-01T01:00:34;101021.00;;;6.10
11849;BMP180;5983;49.966;8.052;2023-02-01T01:03:01;101007.00;;;6.10
11849;BMP180;5983;49.966;8.052;2023-02-01T01:05:43;101015.00;;;6.10
11849;BMP180;5983;49.966;8.052;2023-02-01T01:08:12;101003.00;;;6.10
11849;BMP180;5983;49.966;8.052;2023-02-01T01:10:39;101016.00;;;6.10
11849;BMP180;5983;49.966;8.052;2023-02-01T01:13:07;101006.00;;;6.10
11849;BMP180;5983;49.966;8.052;2023-02-01T01:15:36;101010.00;;;6.10
11849;BMP180;5983;49.966;8.052;2023-02-01T01:18:04;101007.00;;;6.10
11849;BMP180;5983;49.966;8.052;2023-02-01T01:20:31;101007.00;;;6.10
11849;BMP180;5983;49.966;8.052;2023-02-01T01:22:58;101009.00;;;6.10
11849;BMP180;5983;49.966;8.052;2023-02-01T01:25:26;101004.00;;;6.10
11849;BMP180;5983;49.966;8.052;2023-02-01T01:27:53;100993.00;;;6.10
11849;BMP180;5983;49.966;8.052;2023-02-01T01:30:20;100994.00;;;6.10
11849;BMP180;5983;49.966;8.052;2023-02-01T01:32:48;100991.00;;;6.10
11849;BMP180;5983;49.966;8.052;2023-02-01T01:35:15;100985.00;;;6.10
11849;BMP180;5983;49.966;8.052;2023-02-01T01:37:46;100986.00;;;6.10
11849;BMP180;5983;49.966;8.052;2023-02-01T01:40:13;100991.00;;;6.10
11849;BMP180;5983;49.966;8.052;2023-02-01T01:42:43;100987.00;;;6.10
11849;BMP180;5983;49.966;8.052;2023-02-01T01:45:22;100991.00;;;6.10
11849;BMP180;5983;49.966;8.052;2023-02-01T01:47:54;100986.00;;;6.10
11849;BMP180;5983;49.966;8.052;2023-02-01T01:50:25;100978.00;;;6.10
11849;BMP180;5983;49.966;8.052;2023-02-01T01:52:56;100988.00;;;6.10
11849;BMP180;5983;49.966;8.052;2023-02-01T01:55:27;100995.00;;;6.10
11849;BMP180;5983;49.966;8.052;2023-02-01T01:58:03;100991.00;;;6.10
11849;BMP180;5983;49.966;8.052;2023-02-01T02:00:32;100981.00;;;6.20
11849;BMP180;5983;49.966;8.052;2023-02-01T02:03:07;100976.00;;;6.20
11849;BMP180;5983;49.966;8.052;2023-02-01T02:05:38;100980.00;;;6.20
11849;BMP180;5983;49.966;8.052;2023-02-01T02:08:05;100979.00;;;6.20
11849;BMP180;5983;49.966;8.052;2023-02-01T02:10:32;100971.00;;;6.20
11849;BMP180;5983;49.966;8.052;2023-02-01T02:13:19;100966.00;;;6.20
11849;BMP180;5983;49.966;8.052;2023-02-01T02:16:03;100956.00;;;6.20
11849;BMP180;5983;49.966;8.052;2023-02-01T02:18:41;100968.00;;;6.20
11849;BMP180;5983;49.966;8.052;2023-02-01T02:21:49;100954.00;;;6.20
11849;BMP180;5983;49.966;8.052;2023-02-01T02:24:47;100959.00;;;6.20
11849;BMP180;5983;49.966;8.052;2023-02-01T02:27:29;100956.00;;;6.20
11849;BMP180;5983;49.966;8.052;2023-02-01T02:30:40;100961.00;;;6.10
11849;BMP180;5983;49.966;8.052;2023-02-01T02:33:53;100964.00;;;6.10
11849;BMP180;5983;49.966;8.052;2023-02-01T02:36:34;100974.00;;;6.10
11849;BMP180;5983;49.966;8.052;2023-02-01T02:39:11;100972.00;;;6.10
11849;BMP180;5983;49.966;8.052;2023-02-01T02:41:52;100966.00;;;6.10
11849;BMP180;5983;49.966;8.052;2023-02-01T02:44:48;100981.00;;;6.10
11849;BMP180;5983;49.966;8.052;2023-02-01T02:47:44;100979.00;;;6.10
11849;BMP180;5983;49.966;8.052;2023-02-01T02:50:24;100974.00;;;6.10
11849;BMP180;5983;49.966;8.052;2023-02-01T02:53:17;100973.00;;;6.10
11849;BMP180;5983;49.966;8.052;2023-02-01T02:56:03;100968.00;;;6.10
11849;BMP180;5983;49.966;8.052;2023-02-01T02:58:50;100956.00;;;6.10
11849;BMP180;5983;49.966;8.052;2023-02-01T03:01:36;100953.00;;;6.10
11849;BMP180;5983;49.966;8.052;2023-02-01T03:04:21;100954.00;;;6.10
11849;BMP180;5983;49.966;8.052;2023-02-01T03:06:51;100956.00;;;6.10
11849;BMP180;5983;49.966;8.052;2023-02-01T03:09:24;100955.00;;;6.10
11849;BMP180;5983;49.966;8.052;2023-02-01T03:12:00;100944.00;;;6.20
11849;BMP180;5983;49.966;8.052;2023-02-01T03:14:52;100952.00;;;6.20
11849;BMP180;5983;49.966;8.052;2023-02-01T03:17:29;100950.00;;;6.20
11849;BMP180;5983;49.966;8.052;2023-02-01T03:20:01;100950.00;;;6.20
11849;BMP180;5983;49.966;8.052;2023-02-01T03:22:33;100944.00;;;6.20
11849;BMP180;5983;49.966;8.052;2023-02-01T03:25:08;100947.00;;;6.20
11849;BMP180;5983;49.966;8.052;2023-02-01T03:27:43;100936.00;;;6.20
11849;BMP180;5983;49.966;8.052;2023-02-01T03:30:21;100941.00;;;6.20
11849;BMP180;5983;49.966;8.052;2023-02-01T03:32:52;100927.00;;;6.20
11849;BMP180;5983;49.966;8.052;2023-02-01T03:35:32;100925.00;;;6.20
11849;BMP180;5983;49.966;8.052;2023-02-01T03:38:13;100916.00;;;6.20
11849;BMP180;5983;49.966;8.052;2023-02-01T03:40:50;100913.00;;;6.20
11849;BMP180;5983;49.966;8.052;2023-02-01T03:43:20;100910.00;;;6.10
11849;BMP180;5983;49.966;8.052;2023-02-01T03:45:54;100905.00;;;6.10
11849;BMP180;5983;49.966;8.052;2023-02-01T03:48:26;100911.00;;;6.10
11849;BMP180;5983;49.966;8.052;2023-02-01T03:50:59;100911.00;;;6.10
11849;BMP180;5983;49.966;8.052;2023-02-01T03:53:29;100914.00;;;6.10
11849;BMP180;5983;49.966;8.052;2023-02-01T03:55:57;100907.00;;;6.10
11849;BMP180;5983;49.966;8.052;2023-02-01T03:58:24;100923.00;;;6.10
11849;BMP180;5983;49.966;8.052;2023-02-01T04:00:57;100927.00;;;6.10
11849;BMP180;5983;49.966;8.052;2023-02-01T04:03:27;100927.00;;;6.10
11849;BMP180;5983;49.966;8.052;2023-02-01T04:05:54;100931.00;;;6.10
11849;BMP180;5983;49.966;8.052;2023-02-01T04:08:22;100939.00;;;6.20
11849;BMP180;5983;49.966;8.052;2023-02-01T04:10:51;100939.00;;;6.20
11849;BMP180;5983;49.966;8.052;2023-02-01T04:13:17;100953.00;;;6.20
11849;BMP180;5983;49.966;8.052;2023-02-01T04:15:44;100954.00;;;6.20
11849;BMP180;5983;49.966;8.052;2023-02-01T04:18:15;100951.00;;;6.20
11849;BMP180;5983;49.966;8.052;2023-02-01T04:20:43;100941.00;;;6.20
11849;BMP180;5983;49.966;8.052;2023-02-01T04:23:10;100949.00;;;6.20
11849;BMP180;5983;49.966;8.052;2023-02-01T04:25:37;100940.00;;;6.20
11849;BMP180;5983;49.966;8.052;2023-02-01T04:28:05;100938.00;;;6.20
11849;BMP180;5983;49.966;8.052;2023-02-01T04:30:33;100931.00;;;6.30
11849;BMP180;5983;49.966;8.052;2023-02-01T04:33:00;100935.00;;;6.30
11849;BMP180;5983;49.966;8.052;2023-02-01T04:35:29;100934.00;;;6.30
11849;BMP180;5983;49.966;8.052;2023-02-01T04:37:56;100944.00;;;6.30
11849;BMP180;5983;49.966;8.052;2023-02-01T04:40:22;100928.00;;;6.30
11849;BMP180;5983;49.966;8.052;2023-02-01T04:42:49;100935.00;;;6.30
11849;BMP180;5983;49.966;8.052;2023-02-01T04:45:17;100944.00;;;6.30
11849;BMP180;5983;49.966;8.052;2023-02-01T04:47:44;100944.00;;;6.30
11849;BMP180;5983;49.966;8.052;2023-02-01T04:50:11;100947.00;;;6.20
11849;BMP180;5983;49.966;8.052;2023-02-01T04:52:38;100945.00;;;6.20
11849;BMP180;5983;49.966;8.052;2023-02-01T04:55:06;100938.00;;;6.20
11849;BMP180;5983;49.966;8.052;2023-02-01T04:57:33;100942.00;;;6.20
11849;BMP180;5983;49.966;8.052;2023-02-01T05:00:00;100945.00;;;6.20
11849;BMP180;5983;49.966;8.052;2023-02-01T05:02:28;100944.00;;;6.20
11849;BMP180;5983;49.966;8.052;2023-02-01T05:04:55;100945.00;;;6.20
11849;BMP180;5983;49.966;8.052;2023-02-01T05:07:22;100932.00;;;6.30
11849;BMP180;5983;49.966;8.052;2023-02-01T05:09:48;100935.00;;;6.30
11849;BMP180;5983;49.966;8.052;2023-02-01T05:12:15;100921.00;;;6.30
11849;BMP180;5983;49.966;8.052;2023-02-01T05:15:00;100927.00;;;6.30
11849;BMP180;5983;49.966;8.052;2023-02-01T05:17:28;100926.00;;;6.30
11849;BMP180;5983;49.966;8.052;2023-02-01T05:19:55;100912.00;;;6.30
11849;BMP180;5983;49.966;8.052;2023-02-01T05:22:22;100907.00;;;6.20
11849;BMP180;5983;49.966;8.052;2023-02-01T05:24:48;100907.00;;;6.20
11849;BMP180;5983;49.966;8.052;2023-02-01T05:27:15;100907.00;;;6.20
11849;BMP180;5983;49.966;8.052;2023-02-01T05:29:42;100899.00;;;6.20
11849;BMP180;5983;49.966;8.052;2023-02-01T05:32:10;100896.00;;;6.20
11849;BMP180;5983;49.966;8.052;2023-02-01T05:34:38;100904.00;;;6.20
11849;BMP180;5983;49.966;8.052;2023-02-01T05:37:05;100904.00;;;6.20
11849;BMP180;5983;49.966;8.052;2023-02-01T05:39:32;100919.00;;;6.20
11849;BMP180;5983;49.966;8.052;2023-02-01T05:41:59;100927.00;;;6.20
11849;BMP180;5983;49.966;8.052;2023-02-01T05:44:26;100928.00;;;6.20
11849;BMP180;5983;49.966;8.052;2023-02-01T05:46:53;100929.00;;;6.20
11849;BMP180;5983;49.966;8.052;2023-02-01T05:49:20;100932.00;;;6.30
11849;BMP180;5983;49.966;8.052;2023-02-01T05:51:48;100932.00;;;6.30
11849;BMP180;5983;49.966;8.052;2023-02-01T05:54:15;100922.00;;;6.30
11849;BMP180;5983;49.966;8.052;2023-02-01T05:56:42;100919.00;;;6.30
11849;BMP180;5983;49.966;8.052;2023-02-01T05:59:09;100926.00;;;6.30
11849;BMP180;5983;49.966;8.052;2023-02-01T06:01:36;100923.00;;;6.30
11849;BMP180;5983;49.966;8.052;2023-02-01T06:04:03;100926.00;;;6.30
11849;BMP180;5983;49.966;8.052;2023-02-01T06:06:30;100927.00;;;6.30
11849;BMP180;5983;49.966;8.052;2023-02-01T06:08:59;100929.00;;;6.30
11849;BMP180;5983;49.966;8.052;2023-02-01T06:11:26;100916.00;;;6.30
11849;BMP180;5983;49.966;8.052;2023-02-01T06:13:53;100912.00;;;6.20
11849;BMP180;5983;49.966;8.052;2023-02-01T06:16:21;100921.00;;;6.20
11849;BMP180;5983;49.966;8.052;2023-02-01T06:18:48;100918.00;;;6.10
11849;BMP180;5983;49.966;8.052;2023-02-01T06:21:15;100921.00;;;6.10
11849;BMP180;5983;49.966;8.052;2023-02-01T06:23:49;100926.00;;;6.00
11849;BMP180;5983;49.966;8.052;2023-02-01T06:26:17;100923.00;;;6.00
11849;BMP180;5983;49.966;8.052;2023-02-01T06:28:44;100931.00;;;5.90
11849;BMP180;5983;49.966;8.052;2023-02-01T06:31:11;100931.00;;;5.80
11849;BMP180;5983;49.966;8.052;2023-02-01T06:33:39;100941.00;;;5.70
11849;BMP180;5983;49.966;8.052;2023-02-01T06:36:09;100929.00;;;5.60
11849;BMP180;5983;49.966;8.052;2023-02-01T06:38:36;100931.00;;;5.60
11849;BMP180;5983;49.966;8.052;2023-02-01T06:41:05;100931.00;;;5.50
11849;BMP180;5983;49.966;8.052;2023-02-01T06:43:33;100920.00;;;5.60
11849;BMP180;5983;49.966;8.052;2023-02-01T06:46:02;100914.00;;;5.50
11849;BMP180;5983;49.966;8.052;2023-02-01T06:48:29;100912.00;;;5.50
11849;BMP180;5983;49.966;8.052;2023-02-01T06:50:56;100908.00;;;5.60
11849;BMP180;5983;49.966;8.052;2023-02-01T06:53:23;100915.00;;;5.50
11849;BMP180;5983;49.966;8.052;2023-02-01T06:55:55;100908.00;;;5.50
11849;BMP180;5983;49.966;8.052;2023-02-01T06:58:22;100900.00;;;5.50
11849;BMP180;5983;49.966;8.052;2023-02-01T07:00:51;100891.00;;;5.50
11849;BMP180;5983;49.966;8.052;2023-02-01T07:03:19;100888.00;;;5.50
11849;BMP180;5983;49.966;8.052;2023-02-01T07:05:46;100888.00;;;5.50
11849;BMP180;5983;49.966;8.052;2023-02-01T07:08:13;100899.00;;;5.50
11849;BMP180;5983;49.966;8.052;2023-02-01T07:10:41;100918.00;;;5.50
11849;BMP180;5983;49.966;8.052;2023-02-01T07:13:08;100900.00;;;5.50
11849;BMP180;5983;49.966;8.052;2023-02-01T07:15:34;100901.00;;;5.50
11849;BMP180;5983;49.966;8.052;2023-02-01T07:18:03;100899.00;;;5.50
11849;BMP180;5983;49.966;8.052;2023-02-01T07:20:30;100901.00;;;5.50
11849;BMP180;5983;49.966;8.052;2023-02-01T07:22:57;100922.00;;;5.60
11849;BMP180;5983;49.966;8.052;2023-02-01T07:25:24;100918.00;;;5.70
11849;BMP180;5983;49.966;8.052;2023-02-01T07:27:51;100917.00;;;5.70
11849;BMP180;5983;49.966;8.052;2023-02-01T07:30:19;100920.00;;;5.80
11849;BMP180;5983;49.966;8.052;2023-02-01T07:32:46;100923.00;;;5.80
11849;BMP180;5983;49.966;8.052;2023-02-01T07:35:15;100924.00;;;5.80
11849;BMP180;5983;49.966;8.052;2023-02-01T07:37:42;100924.00;;;5.90
11849;BMP180;5983;49.966;8.052;2023-02-01T07:40:10;100929.00;;;5.90
11849;BMP180;5983;49.966;8.052;2023-02-01T07:42:38;100934.00;;;6.00
11849;BMP180;5983;49.966;8.052;2023-02-01T07:45:06;100943.00;;;6.20
11849;BMP180;5983;49.966;8.052;2023-02-01T07:47:33;100940.00;;;6.40
11849;BMP180;5983;49.966;8.052;2023-02-01T07:50:00;100942.00;;;7.00
11849;BMP180;5983;49.966;8.052;2023-02-01T07:52:29;100959.00;;;7.70
11849;BMP180;5983;49.966;8.052;2023-02-01T07:54:56;100953.00;;;8.50
11849;BMP180;5983;49.966;8.052;2023-02-01T07:57:23;100956.00;;;8.90
11849;BMP180;5983;49.966;8.052;2023-02-01T07:59:49;100963.00;;;9.00
11849;BMP180;5983;49.966;8.052;2023-02-01T08:02:34;100981.00;;;9.00
11849;BMP180;5983;49.966;8.052;2023-02-01T08:05:01;100966.00;;;9.50
11849;BMP180;5983;49.966;8.052;2023-02-01T08:07:29;100980.00;;;10.00
11849;BMP180;5983;49.966;8.052;2023-02-01T08:09:56;100986.00;;;10.60
11849;BMP180;5983;49.966;8.052;2023-02-01T08:12:23;100980.00;;;10.60
11849;BMP180;5983;49.966;8.052;2023-02-01T08:14:49;100985.00;;;10.30
11849;BMP180;5983;49.966;8.052;2023-02-01T08:17:16;100983.00;;;9.70
11849;BMP180;5983;49.966;8.052;2023-02-01T08:19:43;100994.00;;;9.10
11849;BMP180;5983;49.966;8.052;2023-02-01T08:22:10;100995.00;;;8.60
11849;BMP180;5983;49.966;8.052;2023-02-01T08:24:38;100991.00;;;8.30
11849;BMP180;5983;49.966;8.052;2023-02-01T08:27:07;100992.00;;;8.00
11849;BMP180;5983;49.966;8.052;2023-02-01T08:29:34;100992.00;;;7.70
11849;BMP180;5983;49.966;8.052;2023-02-01T08:32:01;100985.00;;;7.50
11849;BMP180;5983;49.966;8.052;2023-02-01T08:34:29;100992.00;;;7.40
11849;BMP180;5983;49.966;8.052;2023-02-01T08:36:55;100983.00;;;7.20
11849;BMP180;5983;49.966;8.052;2023-02-01T08:39:26;100985.00;;;7.20
11849;BMP180;5983;49.966;8.052;2023-02-01T08:41:54;100988.00;;;7.10
11849;BMP180;5983;49.966;8.052;2023-02-01T08:44:38;100997.00;;;7.10
11849;BMP180;5983;49.966;8.052;2023-02-01T08:47:05;100993.00;;;7.20
11849;BMP180;5983;49.966;8.052;2023-02-01T08:49:32;100986.00;;;7.40
11849;BMP180;5983;49.966;8.052;2023-02-01T08:51:59;100997.00;;;8.30
11849;BMP180;5983;49.966;8.052;2023-02-01T08:54:26;101000.00;;;9.70
11849;BMP180;5983;49.966;8.052;2023-02-01T08:56:54;101014.00;;;10.30
11849;BMP180;5983;49.966;8.052;2023-02-01T08:59:22;101015.00;;;10.90
11849;BMP180;5983;49.966;8.052;2023-02-01T09:01:48;101007.00;;;10.90
11849;BMP180;5983;49.966;8.052;2023-02-01T09:04:15;101000.00;;;11.00
11849;BMP180;5983;49.966;8.052;2023-02-01T09:06:42;101013.00;;;11.20
11849;BMP180;5983;49.966;8.052;2023-02-01T09:09:09;100998.00;;;11.40
11849;BMP180;5983;49.966;8.052;2023-02-01T09:11:36;101024.00;;;11.80
11849;BMP180;5983;49.966;8.052;2023-02-01T09:14:04;101032.00;;;11.50
11849;BMP180;5983;49.966;8.052;2023-02-01T09:16:31;101035.00;;;11.30
11849;BMP180;5983;49.966;8.052;2023-02-01T09:18:58;101048.00;;;11.40
11849;BMP180;5983;49.966;8.052;2023-02-01T09:21:25;101043.00;;;10.90
11849;BMP180;5983;49.966;8.052;2023-02-01T09:23:52;101052.00;;;10.40
11849;BMP180;5983;49.966;8.052;2023-02-01T09:26:19;101045.00;;;9.80
11849;BMP180;5983;49.966;8.052;2023-02-01T09:28:46;101047.00;;;9.40
11849;BMP180;5983;49.966;8.052;2023-02-01T09:31:14;101046.00;;;9.10
11849;BMP180;5983;49.966;8.052;2023-02-01T09:33:41;101065.00;;;8.80
11849;BMP180;5983;49.966;8.052;2023-02-01T09:36:08;101076.00;;;8.60
11849;BMP180;5983;49.966;8.052;2023-02-01T09:38:35;101066.00;;;8.50
11849;BMP180;5983;49.966;8.052;2023-02-01T09:41:24;101077.00;;;8.40
11849;BMP180;5983;49.966;8.052;2023-02-01T09:44:03;101081.00;;;8.30
11849;BMP180;5983;49.966;8.052;2023-02-01T09:46:36;101080.00;;;8.10
11849;BMP180;5983;49.966;8.052;2023-02-01T09:49:11;101085.00;;;8.10
11849;BMP180;5983;49.966;8.052;2023-02-01T09:51:45;101080.00;;;8.20
11849;BMP180;5983;49.966;8.052;2023-02-01T09:54:17;101083.00;;;8.30
11849;BMP180;5983;49.966;8.052;2023-02-01T09:56:47;101068.00;;;8.20
11849;BMP180;5983;49.966;8.052;2023-02-01T09:59:31;101065.00;;;8.10
11849;BMP180;5983;49.966;8.052;2023-02-01T10:02:03;101081.00;;;8.00
11849;BMP180;5983;49.966;8.052;2023-02-01T10:04:31;101074.00;;;8.00
11849;BMP180;5983;49.966;8.052;2023-02-01T10:07:18;101074.00;;;8.00
11849;BMP180;5983;49.966;8.052;2023-02-01T10:10:02;101073.00;;;7.90
11849;BMP180;5983;49.966;8.052;2023-02-01T10:16:01;101062.00;;;8.00
11849;BMP180;5983;49.966;8.052;2023-02-01T10:18:52;101068.00;;;8.00
11849;BMP180;5983;49.966;8.052;2023-02-01T10:21:37;101082.00;;;8.10
11849;BMP180;5983;49.966;8.052;2023-02-01T10:24:35;101077.00;;;8.20
11849;BMP180;5983;49.966;8.052;2023-02-01T10:27:17;101073.00;;;8.20
11849;BMP180;5983;49.966;8.052;2023-02-01T10:29:51;101072.00;;;8.10
11849;BMP180;5983;49.966;8.052;2023-02-01T10:32:23;101067.00;;;8.10
11849;BMP180;5983;49.966;8.052;2023-02-01T10:34:58;101065.00;;;8.00
11849;BMP180;5983;49.966;8.052;2023-02-01T10:37:30;101066.00;;;7.90
11849;BMP180;5983;49.966;8.052;2023-02-01T10:40:01;101053.00;;;7.90
11849;BMP180;5983;49.966;8.052;2023-02-01T10:42:30;101048.00;;;7.90
11849;BMP180;5983;49.966;8.052;2023-02-01T10:45:02;101051.00;;;7.80
11849;BMP180;5983;49.966;8.052;2023-02-01T10:47:30;101040.00;;;7.80
11849;BMP180;5983;49.966;8.052;2023-02-01T10:50:13;101037.00;;;7.70
11849;BMP180;5983;49.966;8.052;2023-02-01T10:52:47;101041.00;;;7.70
11849;BMP180;5983;49.966;8.052;2023-02-01T10:55:39;101044.00;;;7.60
11849;BMP180;5983;49.966;8.052;2023-02-01T10:58:15;101042.00;;;7.60
11849;BMP180;5983;49.966;8.052;2023-02-01T11:00:46;101039.00;;;7.60
11849;BMP180;5983;49.966;8.052;2023-02-01T11:03:34;101027.00;;;7.60
11849;BMP180;5983;49.966;8.052;2023-02-01T11:06:24;101040.00;;;7.60
11849;BMP180;5983;49.966;8.052;2023-02-01T11:08:55;101025.00;;;7.60
11849;BMP180;5983;49.966;8.052;2023-02-01T11:11:23;101023.00;;;7.50
11849;BMP180;5983;49.966;8.052;2023-02-01T11:13:55;101025.00;;;7.50
11849;BMP180;5983;49.966;8.052;2023-02-01T11:16:32;101026.00;;;7.50
11849;BMP180;5983;49.966;8.052;2023-02-01T11:19:00;101016.00;;;7.50
11849;BMP180;5983;49.966;8.052;2023-02-01T11:21:28;101012.00;;;7.50
11849;BMP180;5983;49.966;8.052;2023-02-01T11:24:01;101007.00;;;7.50
11849;BMP180;5983;49.966;8.052;2023-02-01T11:26:29;101000.00;;;7.50
11849;BMP180;5983;49.966;8.052;2023-02-01T11:29:02;101016.00;;;7.50
11849;BMP180;5983;49.966;8.052;2023-02-01T11:31:32;101024.00;;;7.50
11849;BMP180;5983;49.966;8.052;2023-02-01T11:34:07;101021.00;;;7.50
11849;BMP180;5983;49.966;8.052;2023-02-01T11:36:38;101027.00;;;7.50
11849;BMP180;5983;49.966;8.052;2023-02-01T11:39:21;101037.00;;;7.50
11849;BMP180;5983;49.966;8.052;2023-02-01T11:42:01;101030.00;;;7.60
11849;BMP180;5983;49.966;8.052;2023-02-01T11:44:34;101026.00;;;7.60
11849;BMP180;5983;49.966;8.052;2023-02-01T11:47:24;101025.00;;;7.60
11849;BMP180;5983;49.966;8.052;2023-02-01T11:49:53;101020.00;;;7.50
11849;BMP180;5983;49.966;8.052;2023-02-01T11:52:48;101023.00;;;7.60
11849;BMP180;5983;49.966;8.052;2023-02-01T11:55:50;101021.00;;;7.50
11849;BMP180;5983;49.966;8.052;2023-02-01T11:58:45;101018.00;;;7.60
11849;BMP180;5983;49.966;8.052;2023-02-01T12:01:34;101014.00;;;7.60
11849;BMP180;5983;49.966;8.052;2023-02-01T12:04:25;100997.00;;;7.60
11849;BMP180;5983;49.966;8.052;2023-02-01T12:07:01;100991.00;;;7.70
11849;BMP180;5983;49.966;8.052;2023-02-01T12:10:01;100984.00;;;7.70
11849;BMP180;5983;49.966;8.052;2023-02-01T12:12:40;100987.00;;;7.80
11849;BMP180;5983;49.966;8.052;2023-02-01T12:15:27;100971.00;;;7.80
11849;BMP180;5983;49.966;8.052;2023-02-01T12:18:31;100985.00;;;7.80
11849;BMP180;5983;49.966;8.052;2023-02-01T12:21:16;100985.00;;;7.80
11849;BMP180;5983;49.966;8.052;2023-02-01T12:24:11;100981.00;;;7.80
11849;BMP180;5983;49.966;8.052;2023-02-01T12:26:57;100970.00;;;7.80
11849;BMP180;5983;49.966;8.052;2023-02-01T12:29:45;100970.00;;;7.80
11849;BMP180;5983;49.966;8.052;2023-02-01T12:32:34;100964.00;;;7.80
11849;BMP180;5983;49.966;8.052;2023-02-01T12:35:25;100973.00;;;7.80
11849;BMP180;5983;49.966;8.052;2023-02-01T12:38:15;100957.00;;;7.80
11849;BMP180;5983;49.966;8.052;2023-02-01T12:41:01;100943.00;;;7.80
11849;BMP180;5983;49.966;8.052;2023-02-01T12:43:39;100948.00;;;7.80
11849;BMP180;5983;49.966;8.052;2023-02-01T12:46:14;100934.00;;;7.80
11849;BMP180;5983;49.966;8.052;2023-02-01T12:48:53;100955.00;;;7.80
11849;BMP180;5983;49.966;8.052;2023-02-01T12:51:28;100945.00;;;7.80
11849;BMP180;5983;49.966;8.052;2023-02-01T12:54:01;100947.00;;;7.80
11849;BMP180;5983;49.966;8.052;2023-02-01T12:56:36;100938.00;;;7.80
11849;BMP180;5983;49.966;8.052;2023-02-01T12:59:18;100950.00;;;7.80
11849;BMP180;5983;49.966;8.052;2023-02-01T13:01:52;100933.00;;;7.70
11849;BMP180;5983;49.966;8.052;2023-02-01T13:04:29;100936.00;;;7.70
11849;BMP180;5983;49.966;8.052;2023-02-01T13:07:07;100936.00;;;7.70
11849;BMP180;5983;49.966;8.052;2023-02-01T13:09:43;100921.00;;;7.70
11849;BMP180;5983;49.966;8.052;2023-02-01T13:12:15;100925.00;;;7.80
11849;BMP180;5983;49.966;8.052;2023-02-01T13:14:51;100919.00;;;7.80
11849;BMP180;5983;49.966;8.052;2023-02-01T13:17:23;100927.00;;;7.90
11849;BMP180;5983;49.966;8.052;2023-02-01T13:19:56;100930.00;;;7.90
11849;BMP180;5983;49.966;8.052;2023-02-01T13:22:30;100916.00;;;7.90
11849;BMP180;5983;49.966;8.052;2023-02-01T13:25:00;100921.00;;;7.90
11849;BMP180;5983;49.966;8.052;2023-02-01T13:27:30;100918.00;;;7.90
11849;BMP180;5983;49.966;8.052;2023-02-01T13:30:10;100922.00;;;7.90
11849;BMP180;5983;49.966;8.052;2023-02-01T13:36:14;100919.00;;;8.00
11849;BMP180;5983;49.966;8.052;2023-02-01T13:41:55;100916.00;;;9.00
11849;BMP180;5983;49.966;8.052;2023-02-01T13:44:29;100920.00;;;9.70
11849;BMP180;5983;49.966;8.052;2023-02-01T13:47:03;100920.00;;;11.30
11849;BMP180;5983;49.966;8.052;2023-02-01T13:49:39;100924.00;;;12.20
11849;BMP180;5983;49.966;8.052;2023-02-01T13:52:29;100936.00;;;12.80
11849;BMP180;5983;49.966;8.052;2023-02-01T13:55:25;100928.00;;;12.10
11849;BMP180;5983;49.966;8.052;2023-02-01T13:58:03;100933.00;;;11.60
11849;BMP180;5983;49.966;8.052;2023-02-01T14:00:33;100934.00;;;11.70
11849;BMP180;5983;49.966;8.052;2023-02-01T14:03:22;100930.00;;;11.50
11849;BMP180;5983;49.966;8.052;2023-02-01T14:06:42;100938.00;;;10.90
11849;BMP180;5983;49.966;8.052;2023-02-01T14:09:32;100930.00;;;10.60
11849;BMP180;5983;49.966;8.052;2023-02-01T14:12:47;100930.00;;;10.30
11849;BMP180;5983;49.966;8.052;2023-02-01T14:15:26;100929.00;;;10.00
11849;BMP180;5983;49.966;8.052;2023-02-01T14:17:54;100922.00;;;9.70
11849;BMP180;5983;49.966;8.052;2023-02-01T14:21:13;100916.00;;;9.50
11849;BMP180;5983;49.966;8.052;2023-02-01T14:23:46;100921.00;;;9.20
11849;BMP180;5983;49.966;8.052;2023-02-01T14:26:18;100913.00;;;9.00
11849;BMP180;5983;49.966;8.052;2023-02-01T14:29:02;100904.00;;;8.80
11849;BMP180;5983;49.966;8.052;2023-02-01T14:34:38;100907.00;;;8.70
11849;BMP180;5983;49.966;8.052;2023-02-01T14:37:23;100910.00;;;8.80
11849;BMP180;5983;49.966;8.052;2023-02-01T14:39:59;100907.00;;;8.90
11849;BMP180;5983;49.966;8.052;2023-02-01T14:42:33;100899.00;;;9.00
11849;BMP180;5983;49.966;8.052;2023-02-01T14:45:48;100905.00;;;9.20
11849;BMP180;5983;49.966;8.052;2023-02-01T14:48:45;100908.00;;;9.20
11849;BMP180;5983;49.966;8.052;2023-02-01T14:51:16;100906.00;;;9.10
11849;BMP180;5983;49.966;8.052;2023-02-01T14:53:45;100914.00;;;9.10
11849;BMP180;5983;49.966;8.052;2023-02-01T14:56:16;100905.00;;;9.10
11849;BMP180;5983;49.966;8.052;2023-02-01T14:58:54;100894.00;;;9.00
11849;BMP180;5983;49.966;8.052;2023-02-01T15:01:24;100896.00;;;9.10
11849;BMP180;5983;49.966;8.052;2023-02-01T15:04:00;100895.00;;;9.10
11849;BMP180;5983;49.966;8.052;2023-02-01T15:06:37;100909.00;;;9.10
11849;BMP180;5983;49.966;8.052;2023-02-01T15:09:11;100898.00;;;9.00
11849;BMP180;5983;49.966;8.052;2023-02-01T15:11:59;100908.00;;;9.00